sensor_id;sensor_type;location;lat;lon;timestamp;P1;durP1;ratioP1;P2;durP2;ratioP2
33844;SDS011;20145;43.118;25.694;2022-08-01T00:01:22;2.60;;;1.40;;
33844;SDS011;20145;43.118;25.694;2022-08-01T00:03:47;3.42;;;2.00;;
33844;SDS011;20145;43.118;25.694;2022-08-01T00:06:13;3.92;;;1.90;;
33844;SDS011;20145;43.118;25.694;2022-08-01T00:08:38;3.08;;;1.50;;
33844;SDS011;20145;43.118;25.694;2022-08-01T00:11:04;3.22;;;1.60;;
33844;SDS011;20145;43.118;25.694;2022-08-01T00:13:30;2.75;;;1.30;;
33844;SDS011;20145;43.118;25.694;2022-08-01T00:15:55;5.47;;;2.05;;
33844;SDS011;20145;43.118;25.694;2022-08-01T00:18:21;2.55;;;1.67;;
33844;SDS011;20145;43.118;25.694;2022-08-01T00:20:46;3.90;;;1.50;;
33844;SDS011;20145;43.118;25.694;2022-08-01T00:23:12;1.67;;;1.58;;
33844;SDS011;20145;43.118;25.694;2022-08-01T00:25:37;3.28;;;1.60;;
33844;SDS011;20145;43.118;25.694;2022-08-01T00:28:03;2.15;;;1.58;;
33844;SDS011;20145;43.118;25.694;2022-08-01T00:30:29;3.63;;;1.90;;
33844;SDS011;20145;43.118;25.694;2022-08-01T00:32:54;4.95;;;1.90;;
33844;SDS011;20145;43.118;25.694;2022-08-01T00:35:20;6.20;;;2.00;;
33844;SDS011;20145;43.118;25.694;2022-08-01T00:37:45;3.28;;;1.95;;
33844;SDS011;20145;43.118;25.694;2022-08-01T00:40:11;2.58;;;1.85;;
33844;SDS011;20145;43.118;25.694;2022-08-01T00:42:37;2.05;;;1.83;;
33844;SDS011;20145;43.118;25.694;2022-08-01T00:45:02;5.22;;;2.10;;
33844;SDS011;20145;43.118;25.694;2022-08-01T00:47:28;3.05;;;1.80;;
33844;SDS011;20145;43.118;25.694;2022-08-01T00:49:54;4.90;;;1.83;;
33844;SDS011;20145;43.118;25.694;2022-08-01T00:52:19;3.35;;;1.80;;
33844;SDS011;20145;43.118;25.694;2022-08-01T00:54:45;3.03;;;1.80;;
33844;SDS011;20145;43.118;25.694;2022-08-01T00:57:11;4.05;;;1.90;;
33844;SDS011;20145;43.118;25.694;2022-08-01T00:59:37;4.03;;;2.03;;
33844;SDS011;20145;43.118;25.694;2022-08-01T01:02:04;2.65;;;1.92;;
33844;SDS011;20145;43.118;25.694;2022-08-01T01:04:29;2.88;;;1.75;;
33844;SDS011;20145;43.118;25.694;2022-08-01T01:07:06;2.17;;;1.98;;
33844;SDS011;20145;43.118;25.694;2022-08-01T01:12:27;4.35;;;2.03;;
33844;SDS011;20145;43.118;25.694;2022-08-01T01:17:27;3.58;;;2.30;;
33844;SDS011;20145;43.118;25.694;2022-08-01T01:19:57;4.15;;;2.10;;
33844;SDS011;20145;43.118;25.694;2022-08-01T01:30:03;3.63;;;1.90;;
33844;SDS011;20145;43.118;25.694;2022-08-01T01:32:36;6.05;;;1.98;;
33844;SDS011;20145;43.118;25.694;2022-08-01T01:35:06;4.65;;;1.98;;
33844;SDS011;20145;43.118;25.694;2022-08-01T01:37:45;1.80;;;1.70;;
33844;SDS011;20145;43.118;25.694;2022-08-01T01:40:15;2.78;;;2.20;;
33844;SDS011;20145;43.118;25.694;2022-08-01T01:42:43;2.20;;;2.00;;
33844;SDS011;20145;43.118;25.694;2022-08-01T01:45:09;2.83;;;1.90;;
33844;SDS011;20145;43.118;25.694;2022-08-01T01:47:36;2.53;;;1.73;;
33844;SDS011;20145;43.118;25.694;2022-08-01T01:50:04;5.38;;;2.15;;
33844;SDS011;20145;43.118;25.694;2022-08-01T01:52:32;2.13;;;1.90;;
33844;SDS011;20145;43.118;25.694;2022-08-01T01:55:00;3.42;;;1.80;;
33844;SDS011;20145;43.118;25.694;2022-08-01T01:57:30;4.75;;;1.90;;
33844;SDS011;20145;43.118;25.694;2022-08-01T01:59:57;2.03;;;1.80;;
33844;SDS011;20145;43.118;25.694;2022-08-01T02:02:24;2.47;;;1.58;;
33844;SDS011;20145;43.118;25.694;2022-08-01T02:04:51;6.68;;;1.80;;
33844;SDS011;20145;43.118;25.694;2022-08-01T02:07:20;4.70;;;1.55;;
33844;SDS011;20145;43.118;25.694;2022-08-01T02:09:49;3.47;;;1.80;;
33844;SDS011;20145;43.118;25.694;2022-08-01T02:12:17;1.85;;;1.50;;
33844;SDS011;20145;43.118;25.694;2022-08-01T02:14:46;2.33;;;1.50;;
33844;SDS011;20145;43.118;25.694;2022-08-01T02:17:15;10.88;;;2.60;;
33844;SDS011;20145;43.118;25.694;2022-08-01T02:19:42;3.20;;;1.48;;
33844;SDS011;20145;43.118;25.694;2022-08-01T02:22:09;1.55;;;1.45;;
33844;SDS011;20145;43.118;25.694;2022-08-01T02:27:11;2.78;;;1.25;;
33844;SDS011;20145;43.118;25.694;2022-08-01T02:29:40;1.67;;;1.58;;
33844;SDS011;20145;43.118;25.694;2022-08-01T02:32:10;4.00;;;1.52;;
33844;SDS011;20145;43.118;25.694;2022-08-01T02:34:39;4.40;;;1.63;;
33844;SDS011;20145;43.118;25.694;2022-08-01T02:37:06;3.28;;;1.38;;
33844;SDS011;20145;43.118;25.694;2022-08-01T02:39:33;2.95;;;1.80;;
33844;SDS011;20145;43.118;25.694;2022-08-01T02:42:02;2.22;;;1.60;;
33844;SDS011;20145;43.118;25.694;2022-08-01T02:44:33;2.10;;;1.48;;
33844;SDS011;20145;43.118;25.694;2022-08-01T02:47:02;2.58;;;1.83;;
33844;SDS011;20145;43.118;25.694;2022-08-01T02:49:34;4.80;;;1.50;;
33844;SDS011;20145;43.118;25.694;2022-08-01T02:52:04;3.72;;;1.45;;
33844;SDS011;20145;43.118;25.694;2022-08-01T02:54:31;5.60;;;1.65;;
33844;SDS011;20145;43.118;25.694;2022-08-01T02:56:59;4.40;;;1.60;;
33844;SDS011;20145;43.118;25.694;2022-08-01T02:59:28;2.97;;;1.40;;
33844;SDS011;20145;43.118;25.694;2022-08-01T03:01:56;4.60;;;1.50;;
33844;SDS011;20145;43.118;25.694;2022-08-01T03:04:23;1.80;;;1.40;;
33844;SDS011;20145;43.118;25.694;2022-08-01T03:06:50;2.75;;;1.90;;
33844;SDS011;20145;43.118;25.694;2022-08-01T03:09:19;2.42;;;1.67;;
33844;SDS011;20145;43.118;25.694;2022-08-01T03:11:46;1.70;;;1.52;;
33844;SDS011;20145;43.118;25.694;2022-08-01T03:14:14;1.92;;;1.63;;
33844;SDS011;20145;43.118;25.694;2022-08-01T03:16:41;2.38;;;1.98;;
33844;SDS011;20145;43.118;25.694;2022-08-01T03:19:11;5.53;;;1.80;;
33844;SDS011;20145;43.118;25.694;2022-08-01T03:21:39;1.70;;;1.60;;
33844;SDS011;20145;43.118;25.694;2022-08-01T03:24:08;5.85;;;1.70;;
33844;SDS011;20145;43.118;25.694;2022-08-01T03:26:36;3.05;;;1.85;;
33844;SDS011;20145;43.118;25.694;2022-08-01T03:29:06;1.80;;;1.70;;
33844;SDS011;20145;43.118;25.694;2022-08-01T03:31:37;3.88;;;1.98;;
33844;SDS011;20145;43.118;25.694;2022-08-01T03:34:07;2.40;;;1.70;;
33844;SDS011;20145;43.118;25.694;2022-08-01T03:36:33;2.72;;;1.80;;
33844;SDS011;20145;43.118;25.694;2022-08-01T03:39:07;2.35;;;2.15;;
33844;SDS011;20145;43.118;25.694;2022-08-01T03:41:37;2.65;;;1.80;;
33844;SDS011;20145;43.118;25.694;2022-08-01T03:44:07;2.72;;;1.63;;
33844;SDS011;20145;43.118;25.694;2022-08-01T03:46:48;2.47;;;1.80;;
33844;SDS011;20145;43.118;25.694;2022-08-01T03:49:29;5.82;;;2.10;;
33844;SDS011;20145;43.118;25.694;2022-08-01T03:51:58;3.33;;;1.80;;
33844;SDS011;20145;43.118;25.694;2022-08-01T03:54:28;2.90;;;1.95;;
33844;SDS011;20145;43.118;25.694;2022-08-01T03:56:55;3.05;;;2.08;;
33844;SDS011;20145;43.118;25.694;2022-08-01T03:59:23;4.32;;;2.15;;
33844;SDS011;20145;43.118;25.694;2022-08-01T04:01:49;4.43;;;2.13;;
33844;SDS011;20145;43.118;25.694;2022-08-01T04:04:15;2.47;;;1.70;;
33844;SDS011;20145;43.118;25.694;2022-08-01T04:06:41;3.63;;;2.05;;
33844;SDS011;20145;43.118;25.694;2022-08-01T04:09:09;1.63;;;1.52;;
33844;SDS011;20145;43.118;25.694;2022-08-01T04:11:37;2.10;;;1.38;;
33844;SDS011;20145;43.118;25.694;2022-08-01T04:14:03;1.83;;;1.42;;
33844;SDS011;20145;43.118;25.694;2022-08-01T04:16:28;1.58;;;1.48;;
33844;SDS011;20145;43.118;25.694;2022-08-01T04:18:54;2.75;;;1.65;;
33844;SDS011;20145;43.118;25.694;2022-08-01T04:21:24;3.78;;;1.60;;
33844;SDS011;20145;43.118;25.694;2022-08-01T04:23:59;4.88;;;1.63;;
33844;SDS011;20145;43.118;25.694;2022-08-01T04:26:30;2.25;;;1.45;;
33844;SDS011;20145;43.118;25.694;2022-08-01T04:28:58;3.83;;;1.42;;
33844;SDS011;20145;43.118;25.694;2022-08-01T04:31:27;1.90;;;1.35;;
33844;SDS011;20145;43.118;25.694;2022-08-01T04:33:55;1.77;;;1.30;;
33844;SDS011;20145;43.118;25.694;2022-08-01T04:36:23;2.35;;;1.50;;
33844;SDS011;20145;43.118;25.694;2022-08-01T04:38:54;7.47;;;1.95;;
33844;SDS011;20145;43.118;25.694;2022-08-01T04:41:22;1.85;;;1.40;;
33844;SDS011;20145;43.118;25.694;2022-08-01T04:43:49;3.70;;;1.70;;
33844;SDS011;20145;43.118;25.694;2022-08-01T04:46:16;1.80;;;1.60;;
33844;SDS011;20145;43.118;25.694;2022-08-01T04:48:42;5.28;;;1.60;;
33844;SDS011;20145;43.118;25.694;2022-08-01T04:51:13;4.35;;;1.60;;
33844;SDS011;20145;43.118;25.694;2022-08-01T04:53:43;7.50;;;2.22;;
33844;SDS011;20145;43.118;25.694;2022-08-01T04:56:11;2.70;;;2.08;;
33844;SDS011;20145;43.118;25.694;2022-08-01T04:58:41;5.28;;;2.00;;
33844;SDS011;20145;43.118;25.694;2022-08-01T05:01:08;2.50;;;2.28;;
33844;SDS011;20145;43.118;25.694;2022-08-01T05:03:34;2.22;;;1.88;;
33844;SDS011;20145;43.118;25.694;2022-08-01T05:06:00;5.00;;;2.00;;
33844;SDS011;20145;43.118;25.694;2022-08-01T05:08:25;3.03;;;1.60;;
33844;SDS011;20145;43.118;25.694;2022-08-01T05:10:51;4.43;;;1.50;;
33844;SDS011;20145;43.118;25.694;2022-08-01T05:13:18;3.55;;;1.70;;
33844;SDS011;20145;43.118;25.694;2022-08-01T05:15:43;3.17;;;2.13;;
33844;SDS011;20145;43.118;25.694;2022-08-01T05:18:09;2.22;;;1.70;;
33844;SDS011;20145;43.118;25.694;2022-08-01T05:20:35;4.47;;;2.35;;
33844;SDS011;20145;43.118;25.694;2022-08-01T05:23:02;4.05;;;1.70;;
33844;SDS011;20145;43.118;25.694;2022-08-01T05:25:28;4.32;;;1.60;;
33844;SDS011;20145;43.118;25.694;2022-08-01T05:27:54;3.80;;;1.95;;
33844;SDS011;20145;43.118;25.694;2022-08-01T05:30:19;3.33;;;1.38;;
33844;SDS011;20145;43.118;25.694;2022-08-01T05:32:45;3.38;;;1.70;;
33844;SDS011;20145;43.118;25.694;2022-08-01T05:35:11;5.78;;;1.67;;
33844;SDS011;20145;43.118;25.694;2022-08-01T05:37:36;4.22;;;1.65;;
33844;SDS011;20145;43.118;25.694;2022-08-01T05:40:02;1.88;;;1.48;;
33844;SDS011;20145;43.118;25.694;2022-08-01T05:42:29;6.57;;;1.52;;
33844;SDS011;20145;43.118;25.694;2022-08-01T05:44:55;4.22;;;1.95;;
33844;SDS011;20145;43.118;25.694;2022-08-01T05:47:20;3.13;;;1.23;;
33844;SDS011;20145;43.118;25.694;2022-08-01T05:49:46;3.75;;;1.67;;
33844;SDS011;20145;43.118;25.694;2022-08-01T05:52:12;5.65;;;1.40;;
33844;SDS011;20145;43.118;25.694;2022-08-01T05:54:37;3.63;;;1.30;;
33844;SDS011;20145;43.118;25.694;2022-08-01T05:57:03;1.42;;;1.13;;
33844;SDS011;20145;43.118;25.694;2022-08-01T05:59:29;7.10;;;1.63;;
33844;SDS011;20145;43.118;25.694;2022-08-01T06:01:55;3.50;;;1.40;;
33844;SDS011;20145;43.118;25.694;2022-08-01T06:04:21;2.45;;;1.30;;
33844;SDS011;20145;43.118;25.694;2022-08-01T06:06:47;4.03;;;1.38;;
33844;SDS011;20145;43.118;25.694;2022-08-01T06:09:13;3.78;;;1.63;;
33844;SDS011;20145;43.118;25.694;2022-08-01T06:11:39;2.00;;;1.50;;
33844;SDS011;20145;43.118;25.694;2022-08-01T06:14:04;4.80;;;1.50;;
33844;SDS011;20145;43.118;25.694;2022-08-01T06:16:30;4.57;;;1.13;;
33844;SDS011;20145;43.118;25.694;2022-08-01T06:18:56;2.55;;;1.48;;
33844;SDS011;20145;43.118;25.694;2022-08-01T06:21:21;3.83;;;1.42;;
33844;SDS011;20145;43.118;25.694;2022-08-01T06:23:47;5.65;;;1.17;;
33844;SDS011;20145;43.118;25.694;2022-08-01T06:26:12;2.10;;;1.40;;
33844;SDS011;20145;43.118;25.694;2022-08-01T06:28:38;5.82;;;1.90;;
33844;SDS011;20145;43.118;25.694;2022-08-01T06:31:04;3.70;;;1.70;;
33844;SDS011;20145;43.118;25.694;2022-08-01T06:33:30;3.60;;;1.40;;
33844;SDS011;20145;43.118;25.694;2022-08-01T06:35:55;2.28;;;1.20;;
33844;SDS011;20145;43.118;25.694;2022-08-01T06:38:21;1.92;;;1.35;;
33844;SDS011;20145;43.118;25.694;2022-08-01T06:40:47;3.03;;;1.17;;
33844;SDS011;20145;43.118;25.694;2022-08-01T06:43:13;7.90;;;1.30;;
33844;SDS011;20145;43.118;25.694;2022-08-01T06:45:39;2.70;;;1.58;;
33844;SDS011;20145;43.118;25.694;2022-08-01T06:48:05;1.48;;;1.38;;
33844;SDS011;20145;43.118;25.694;2022-08-01T06:50:31;4.63;;;1.60;;
33844;SDS011;20145;43.118;25.694;2022-08-01T06:52:57;4.75;;;1.25;;
33844;SDS011;20145;43.118;25.694;2022-08-01T06:55:22;3.28;;;1.17;;
33844;SDS011;20145;43.118;25.694;2022-08-01T06:57:49;1.77;;;1.42;;
33844;SDS011;20145;43.118;25.694;2022-08-01T07:00:17;3.08;;;1.38;;
33844;SDS011;20145;43.118;25.694;2022-08-01T07:02:46;4.78;;;1.35;;
33844;SDS011;20145;43.118;25.694;2022-08-01T07:05:12;2.35;;;1.20;;
33844;SDS011;20145;43.118;25.694;2022-08-01T07:07:38;0.88;;;0.85;;
33844;SDS011;20145;43.118;25.694;2022-08-01T07:10:03;2.95;;;1.10;;
33844;SDS011;20145;43.118;25.694;2022-08-01T07:12:31;10.68;;;1.30;;
33844;SDS011;20145;43.118;25.694;2022-08-01T07:14:58;0.85;;;0.80;;
33844;SDS011;20145;43.118;25.694;2022-08-01T07:17:23;1.38;;;1.27;;
33844;SDS011;20145;43.118;25.694;2022-08-01T07:19:49;1.20;;;1.10;;
33844;SDS011;20145;43.118;25.694;2022-08-01T07:22:15;3.20;;;1.20;;
33844;SDS011;20145;43.118;25.694;2022-08-01T07:24:41;0.77;;;0.77;;
33844;SDS011;20145;43.118;25.694;2022-08-01T07:27:07;4.22;;;0.98;;
33844;SDS011;20145;43.118;25.694;2022-08-01T07:29:32;2.85;;;0.90;;
33844;SDS011;20145;43.118;25.694;2022-08-01T07:31:58;3.78;;;1.10;;
33844;SDS011;20145;43.118;25.694;2022-08-01T07:34:24;1.17;;;0.98;;
33844;SDS011;20145;43.118;25.694;2022-08-01T07:36:51;1.33;;;0.90;;
33844;SDS011;20145;43.118;25.694;2022-08-01T07:39:17;5.43;;;1.25;;
33844;SDS011;20145;43.118;25.694;2022-08-01T07:41:43;1.83;;;1.20;;
33844;SDS011;20145;43.118;25.694;2022-08-01T07:44:08;3.53;;;1.38;;
33844;SDS011;20145;43.118;25.694;2022-08-01T07:46:34;3.25;;;1.50;;
33844;SDS011;20145;43.118;25.694;2022-08-01T07:49:00;5.88;;;1.70;;
33844;SDS011;20145;43.118;25.694;2022-08-01T07:51:25;3.60;;;1.63;;
33844;SDS011;20145;43.118;25.694;2022-08-01T07:53:51;4.75;;;2.00;;
33844;SDS011;20145;43.118;25.694;2022-08-01T07:56:16;3.40;;;2.92;;
33844;SDS011;20145;43.118;25.694;2022-08-01T07:58:42;3.70;;;1.75;;
33844;SDS011;20145;43.118;25.694;2022-08-01T08:01:08;3.22;;;2.33;;
33844;SDS011;20145;43.118;25.694;2022-08-01T08:03:34;4.60;;;2.47;;
33844;SDS011;20145;43.118;25.694;2022-08-01T08:05:59;2.65;;;2.25;;
33844;SDS011;20145;43.118;25.694;2022-08-01T08:08:25;4.78;;;1.95;;
33844;SDS011;20145;43.118;25.694;2022-08-01T08:10:51;3.58;;;1.92;;
33844;SDS011;20145;43.118;25.694;2022-08-01T08:13:16;4.72;;;2.50;;
33844;SDS011;20145;43.118;25.694;2022-08-01T08:15:42;9.65;;;1.77;;
33844;SDS011;20145;43.118;25.694;2022-08-01T08:18:08;3.60;;;1.35;;
33844;SDS011;20145;43.118;25.694;2022-08-01T08:20:34;5.25;;;1.63;;
33844;SDS011;20145;43.118;25.694;2022-08-01T08:22:59;2.10;;;1.83;;
33844;SDS011;20145;43.118;25.694;2022-08-01T08:25:25;2.58;;;1.35;;
33844;SDS011;20145;43.118;25.694;2022-08-01T08:27:52;1.90;;;1.35;;
33844;SDS011;20145;43.118;25.694;2022-08-01T08:30:18;5.55;;;1.48;;
33844;SDS011;20145;43.118;25.694;2022-08-01T08:32:44;4.85;;;1.58;;
33844;SDS011;20145;43.118;25.694;2022-08-01T08:35:10;3.40;;;1.42;;
33844;SDS011;20145;43.118;25.694;2022-08-01T08:37:35;3.58;;;2.30;;
33844;SDS011;20145;43.118;25.694;2022-08-01T08:40:05;6.13;;;2.30;;
33844;SDS011;20145;43.118;25.694;2022-08-01T08:42:32;7.07;;;2.47;;
33844;SDS011;20145;43.118;25.694;2022-08-01T08:44:58;8.05;;;2.55;;
33844;SDS011;20145;43.118;25.694;2022-08-01T08:47:24;4.05;;;3.22;;
33844;SDS011;20145;43.118;25.694;2022-08-01T08:49:53;6.35;;;3.60;;
33844;SDS011;20145;43.118;25.694;2022-08-01T08:52:21;6.28;;;3.47;;
33844;SDS011;20145;43.118;25.694;2022-08-01T08:54:48;4.65;;;3.10;;
33844;SDS011;20145;43.118;25.694;2022-08-01T08:57:15;4.15;;;2.60;;
33844;SDS011;20145;43.118;25.694;2022-08-01T08:59:43;4.53;;;2.00;;
33844;SDS011;20145;43.118;25.694;2022-08-01T09:02:09;4.95;;;2.40;;
33844;SDS011;20145;43.118;25.694;2022-08-01T09:04:36;2.97;;;1.80;;
33844;SDS011;20145;43.118;25.694;2022-08-01T09:07:03;3.42;;;1.92;;
33844;SDS011;20145;43.118;25.694;2022-08-01T09:09:30;4.55;;;1.50;;
33844;SDS011;20145;43.118;25.694;2022-08-01T09:11:56;4.07;;;1.67;;
33844;SDS011;20145;43.118;25.694;2022-08-01T09:14:23;2.58;;;1.90;;
33844;SDS011;20145;43.118;25.694;2022-08-01T09:19:50;2.78;;;1.50;;
33844;SDS011;20145;43.118;25.694;2022-08-01T09:22:17;4.28;;;1.75;;
33844;SDS011;20145;43.118;25.694;2022-08-01T09:27:40;3.17;;;1.33;;
33844;SDS011;20145;43.118;25.694;2022-08-01T09:30:16;4.65;;;1.50;;
33844;SDS011;20145;43.118;25.694;2022-08-01T09:32:56;1.75;;;1.42;;
33844;SDS011;20145;43.118;25.694;2022-08-01T09:35:27;1.55;;;1.10;;
33844;SDS011;20145;43.118;25.694;2022-08-01T09:38:12;4.75;;;1.10;;
33844;SDS011;20145;43.118;25.694;2022-08-01T09:43:14;1.48;;;0.85;;
33844;SDS011;20145;43.118;25.694;2022-08-01T09:45:39;1.42;;;0.98;;
33844;SDS011;20145;43.118;25.694;2022-08-01T09:48:06;1.77;;;0.82;;
33844;SDS011;20145;43.118;25.694;2022-08-01T09:50:40;1.13;;;0.90;;
33844;SDS011;20145;43.118;25.694;2022-08-01T09:53:07;3.97;;;0.80;;
33844;SDS011;20145;43.118;25.694;2022-08-01T09:55:34;2.92;;;0.90;;
33844;SDS011;20145;43.118;25.694;2022-08-01T09:57:59;1.48;;;0.80;;
33844;SDS011;20145;43.118;25.694;2022-08-01T10:00:27;2.45;;;0.80;;
33844;SDS011;20145;43.118;25.694;2022-08-01T10:02:52;1.48;;;0.90;;
33844;SDS011;20145;43.118;25.694;2022-08-01T10:05:29;1.17;;;0.85;;
33844;SDS011;20145;43.118;25.694;2022-08-01T10:08:00;2.17;;;0.80;;
33844;SDS011;20145;43.118;25.694;2022-08-01T10:10:28;4.63;;;0.80;;
33844;SDS011;20145;43.118;25.694;2022-08-01T10:12:54;4.57;;;0.95;;
33844;SDS011;20145;43.118;25.694;2022-08-01T10:15:21;4.50;;;1.00;;
33844;SDS011;20145;43.118;25.694;2022-08-01T10:17:55;1.40;;;0.93;;
33844;SDS011;20145;43.118;25.694;2022-08-01T10:20:23;3.90;;;0.85;;
33844;SDS011;20145;43.118;25.694;2022-08-01T10:22:53;3.38;;;0.70;;
33844;SDS011;20145;43.118;25.694;2022-08-01T10:25:20;2.38;;;0.77;;
33844;SDS011;20145;43.118;25.694;2022-08-01T10:27:52;1.88;;;0.80;;
33844;SDS011;20145;43.118;25.694;2022-08-01T10:30:21;0.65;;;0.60;;
33844;SDS011;20145;43.118;25.694;2022-08-01T10:32:48;1.25;;;0.60;;
33844;SDS011;20145;43.118;25.694;2022-08-01T10:35:15;1.95;;;0.45;;
33844;SDS011;20145;43.118;25.694;2022-08-01T10:37:44;1.20;;;0.70;;
33844;SDS011;20145;43.118;25.694;2022-08-01T10:40:15;1.95;;;0.85;;
33844;SDS011;20145;43.118;25.694;2022-08-01T10:42:42;1.55;;;0.40;;
33844;SDS011;20145;43.118;25.694;2022-08-01T10:45:11;1.45;;;0.60;;
33844;SDS011;20145;43.118;25.694;2022-08-01T10:47:42;4.13;;;0.45;;
33844;SDS011;20145;43.118;25.694;2022-08-01T10:50:15;1.95;;;0.47;;
33844;SDS011;20145;43.118;25.694;2022-08-01T10:55:44;1.02;;;0.50;;
33844;SDS011;20145;43.118;25.694;2022-08-01T10:58:19;7.07;;;0.70;;
33844;SDS011;20145;43.118;25.694;2022-08-01T11:00:47;0.55;;;0.47;;
33844;SDS011;20145;43.118;25.694;2022-08-01T11:03:12;0.60;;;0.57;;
33844;SDS011;20145;43.118;25.694;2022-08-01T11:05:38;4.95;;;0.60;;
33844;SDS011;20145;43.118;25.694;2022-08-01T11:08:10;0.95;;;0.60;;
33844;SDS011;20145;43.118;25.694;2022-08-01T11:10:45;1.15;;;0.70;;
33844;SDS011;20145;43.118;25.694;2022-08-01T11:13:12;1.63;;;0.52;;
33844;SDS011;20145;43.118;25.694;2022-08-01T11:15:38;2.90;;;0.60;;
33844;SDS011;20145;43.118;25.694;2022-08-01T11:20:58;3.17;;;0.60;;
33844;SDS011;20145;43.118;25.694;2022-08-01T11:23:26;0.60;;;0.60;;
33844;SDS011;20145;43.118;25.694;2022-08-01T11:28:28;1.10;;;0.57;;
33844;SDS011;20145;43.118;25.694;2022-08-01T11:38:38;1.48;;;0.68;;
33844;SDS011;20145;43.118;25.694;2022-08-01T11:41:15;1.77;;;0.43;;
33844;SDS011;20145;43.118;25.694;2022-08-01T11:44:00;2.90;;;0.70;;
33844;SDS011;20145;43.118;25.694;2022-08-01T11:47:06;2.45;;;0.60;;
33844;SDS011;20145;43.118;25.694;2022-08-01T11:54:36;0.80;;;0.80;;
33844;SDS011;20145;43.118;25.694;2022-08-01T11:57:09;3.60;;;0.75;;
33844;SDS011;20145;43.118;25.694;2022-08-01T12:02:34;1.10;;;0.68;;
33844;SDS011;20145;43.118;25.694;2022-08-01T12:05:04;0.75;;;0.68;;
33844;SDS011;20145;43.118;25.694;2022-08-01T12:07:30;2.67;;;0.70;;
33844;SDS011;20145;43.118;25.694;2022-08-01T12:12:30;1.65;;;0.60;;
33844;SDS011;20145;43.118;25.694;2022-08-01T12:15:06;1.05;;;0.80;;
33844;SDS011;20145;43.118;25.694;2022-08-01T12:20:12;1.63;;;0.68;;
33844;SDS011;20145;43.118;25.694;2022-08-01T12:22:39;1.58;;;0.77;;
33844;SDS011;20145;43.118;25.694;2022-08-01T12:25:09;2.08;;;0.90;;
33844;SDS011;20145;43.118;25.694;2022-08-01T12:27:37;2.45;;;0.73;;
33844;SDS011;20145;43.118;25.694;2022-08-01T12:30:05;1.85;;;0.80;;
33844;SDS011;20145;43.118;25.694;2022-08-01T12:32:32;4.80;;;0.93;;
33844;SDS011;20145;43.118;25.694;2022-08-01T12:35:11;2.17;;;0.90;;
33844;SDS011;20145;43.118;25.694;2022-08-01T12:37:47;1.27;;;0.95;;
33844;SDS011;20145;43.118;25.694;2022-08-01T12:40:19;3.10;;;0.95;;
33844;SDS011;20145;43.118;25.694;2022-08-01T12:42:46;0.87;;;0.70;;
33844;SDS011;20145;43.118;25.694;2022-08-01T12:45:35;2.75;;;1.02;;
33844;SDS011;20145;43.118;25.694;2022-08-01T12:48:01;1.20;;;0.80;;
33844;SDS011;20145;43.118;25.694;2022-08-01T12:50:45;1.38;;;0.90;;
33844;SDS011;20145;43.118;25.694;2022-08-01T12:53:12;0.82;;;0.70;;
33844;SDS011;20145;43.118;25.694;2022-08-01T12:58:15;2.88;;;1.00;;
33844;SDS011;20145;43.118;25.694;2022-08-01T13:00:43;2.20;;;0.90;;
33844;SDS011;20145;43.118;25.694;2022-08-01T13:03:11;1.33;;;0.95;;
33844;SDS011;20145;43.118;25.694;2022-08-01T13:05:50;4.00;;;1.25;;
33844;SDS011;20145;43.118;25.694;2022-08-01T13:08:29;1.45;;;1.00;;
33844;SDS011;20145;43.118;25.694;2022-08-01T13:11:14;1.25;;;1.00;;
33844;SDS011;20145;43.118;25.694;2022-08-01T13:13:43;3.13;;;1.13;;
33844;SDS011;20145;43.118;25.694;2022-08-01T13:16:14;3.17;;;0.90;;
33844;SDS011;20145;43.118;25.694;2022-08-01T13:18:41;3.20;;;0.75;;
33844;SDS011;20145;43.118;25.694;2022-08-01T13:21:21;3.40;;;0.95;;
33844;SDS011;20145;43.118;25.694;2022-08-01T13:26:50;2.20;;;1.73;;
33844;SDS011;20145;43.118;25.694;2022-08-01T13:29:34;0.93;;;0.90;;
33844;SDS011;20145;43.118;25.694;2022-08-01T13:32:16;1.75;;;1.30;;
33844;SDS011;20145;43.118;25.694;2022-08-01T13:34:42;3.70;;;1.13;;
33844;SDS011;20145;43.118;25.694;2022-08-01T13:37:08;2.25;;;1.00;;
33844;SDS011;20145;43.118;25.694;2022-08-01T13:39:34;1.52;;;1.42;;
33844;SDS011;20145;43.118;25.694;2022-08-01T13:42:06;8.60;;;1.35;;
33844;SDS011;20145;43.118;25.694;2022-08-01T13:44:32;3.47;;;1.35;;
33844;SDS011;20145;43.118;25.694;2022-08-01T13:46:58;6.32;;;1.30;;
33844;SDS011;20145;43.118;25.694;2022-08-01T13:49:24;3.22;;;0.77;;
33844;SDS011;20145;43.118;25.694;2022-08-01T13:51:49;1.58;;;1.20;;
33844;SDS011;20145;43.118;25.694;2022-08-01T13:54:15;1.50;;;0.95;;
33844;SDS011;20145;43.118;25.694;2022-08-01T13:56:41;1.35;;;1.10;;
33844;SDS011;20145;43.118;25.694;2022-08-01T13:59:07;1.85;;;1.10;;
33844;SDS011;20145;43.118;25.694;2022-08-01T14:01:33;1.52;;;1.17;;
33844;SDS011;20145;43.118;25.694;2022-08-01T14:03:59;3.88;;;1.40;;
33844;SDS011;20145;43.118;25.694;2022-08-01T14:06:26;2.97;;;1.27;;
33844;SDS011;20145;43.118;25.694;2022-08-01T14:08:51;1.75;;;1.13;;
33844;SDS011;20145;43.118;25.694;2022-08-01T14:11:17;4.00;;;1.30;;
33844;SDS011;20145;43.118;25.694;2022-08-01T14:13:43;1.20;;;1.10;;
33844;SDS011;20145;43.118;25.694;2022-08-01T14:16:09;1.38;;;1.10;;
33844;SDS011;20145;43.118;25.694;2022-08-01T14:18:34;3.65;;;1.27;;
33844;SDS011;20145;43.118;25.694;2022-08-01T14:21:00;2.03;;;1.30;;
33844;SDS011;20145;43.118;25.694;2022-08-01T14:23:26;2.15;;;1.40;;
33844;SDS011;20145;43.118;25.694;2022-08-01T14:26:02;2.22;;;1.15;;
33844;SDS011;20145;43.118;25.694;2022-08-01T14:50:16;1.77;;;1.00;;
33844;SDS011;20145;43.118;25.694;2022-08-01T14:52:53;4.25;;;1.23;;
33844;SDS011;20145;43.118;25.694;2022-08-01T14:58:05;0.80;;;0.70;;
33844;SDS011;20145;43.118;25.694;2022-08-01T15:00:31;1.85;;;0.85;;
33844;SDS011;20145;43.118;25.694;2022-08-01T15:02:56;1.55;;;0.90;;
33844;SDS011;20145;43.118;25.694;2022-08-01T15:05:23;1.02;;;0.93;;
33844;SDS011;20145;43.118;25.694;2022-08-01T15:07:48;0.90;;;0.88;;
33844;SDS011;20145;43.118;25.694;2022-08-01T15:10:14;5.10;;;0.85;;
33844;SDS011;20145;43.118;25.694;2022-08-01T15:12:41;3.13;;;1.20;;
33844;SDS011;20145;43.118;25.694;2022-08-01T15:15:07;2.45;;;1.10;;
33844;SDS011;20145;43.118;25.694;2022-08-01T15:17:33;4.07;;;1.45;;
33844;SDS011;20145;43.118;25.694;2022-08-01T15:20:02;1.65;;;0.73;;
33844;SDS011;20145;43.118;25.694;2022-08-01T15:22:29;1.30;;;1.20;;
33844;SDS011;20145;43.118;25.694;2022-08-01T15:24:56;1.85;;;1.40;;
33844;SDS011;20145;43.118;25.694;2022-08-01T15:27:23;2.72;;;2.05;;
33844;SDS011;20145;43.118;25.694;2022-08-01T15:29:49;4.68;;;1.77;;
33844;SDS011;20145;43.118;25.694;2022-08-01T15:32:21;2.15;;;1.30;;
33844;SDS011;20145;43.118;25.694;2022-08-01T15:34:49;3.25;;;1.30;;
33844;SDS011;20145;43.118;25.694;2022-08-01T15:37:15;3.45;;;1.50;;
33844;SDS011;20145;43.118;25.694;2022-08-01T15:39:41;2.65;;;1.40;;
33844;SDS011;20145;43.118;25.694;2022-08-01T15:42:10;3.47;;;1.17;;
33844;SDS011;20145;43.118;25.694;2022-08-01T15:47:05;2.75;;;1.35;;
33844;SDS011;20145;43.118;25.694;2022-08-01T15:52:28;2.58;;;1.10;;
33844;SDS011;20145;43.118;25.694;2022-08-01T15:58:15;4.57;;;1.30;;
33844;SDS011;20145;43.118;25.694;2022-08-01T16:00:40;0.80;;;0.80;;
33844;SDS011;20145;43.118;25.694;2022-08-01T16:03:07;2.92;;;1.05;;
33844;SDS011;20145;43.118;25.694;2022-08-01T16:05:35;4.00;;;1.05;;
33844;SDS011;20145;43.118;25.694;2022-08-01T16:08:01;2.00;;;1.13;;
33844;SDS011;20145;43.118;25.694;2022-08-01T16:10:29;4.78;;;1.42;;